Time;durP1;ratioP1;P1;durP2;ratioP2;P2;SDS_P1;SDS_P2;PMS_P1;PMS_P2;Temp;Humidity;BMP_temperature;BMP_pressure;BME280_temperature;BME280_humidity;BME280_pressure;Samples;Min_cycle;Max_cycle;Signal;HPM_P1;HPM_P2
2022/06/07 00:00:34;;;;;;;3.30;2.00;;;13.10;99.90;;;;;;6214592;23;20201;-91
2022/06/07 00:03:01;;;;;;;2.13;1.87;;;13.10;99.90;;;;;;6189567;23;20646;-92
2022/06/07 00:05:27;;;;;;;6.37;2.17;;;13.10;99.90;;;;;;6213876;23;20224;-92
2022/06/07 00:07:54;;;;;;;3.33;1.90;;;13.20;99.90;;;;;;6190036;23;20168;-92
2022/06/07 00:10:21;;;;;;;1.57;1.37;;;13.20;99.90;;;;;;6190093;23;20280;-91
2022/06/07 00:12:47;;;;;;;3.50;2.77;;;13.20;99.90;;;;;;6164892;23;20196;-92
2022/06/07 00:15:13;;;;;;;3.93;1.57;;;13.20;99.90;;;;;;6189402;23;20522;-90
2022/06/07 00:17:38;;;;;;;3.73;2.67;;;13.20;99.90;;;;;;6164424;23;20565;-91
2022/06/07 00:20:06;;;;;;;2.67;2.43;;;13.20;99.90;;;;;;6189508;23;20203;-91
2022/06/07 00:22:32;;;;;;;9.63;1.63;;;13.10;99.90;;;;;;6189979;23;20168;-92
2022/06/07 00:24:58;;;;;;;1.67;1.33;;;13.10;99.90;;;;;;6189062;23;20224;-93
2022/06/07 00:27:24;;;;;;;4.83;1.53;;;13.10;99.90;;;;;;6164622;23;20197;-92
2022/06/07 00:29:50;;;;;;;4.07;2.10;;;13.20;99.90;;;;;;6164456;23;20201;-92
2022/06/07 00:32:19;;;;;;;5.37;2.23;;;13.20;99.90;;;;;;6189479;23;20197;-92
2022/06/07 00:34:44;;;;;;;5.00;2.27;;;13.20;99.90;;;;;;6214676;23;20185;-91
2022/06/07 00:37:10;;;;;;;2.77;1.60;;;13.20;99.90;;;;;;6164451;23;20641;-92
2022/06/07 00:39:36;;;;;;;4.47;2.07;;;13.20;99.90;;;;;;6189324;23;20215;-92
2022/06/07 00:42:02;;;;;;;9.77;1.93;;;13.20;99.90;;;;;;6164340;23;20197;-91
2022/06/07 00:44:42;;;;;;;3.63;1.70;;;13.20;99.90;;;;;;6164742;23;20206;-92
2022/06/07 00:47:18;;;;;;;4.00;2.13;;;13.20;99.90;;;;;;6213772;23;20138;-92
2022/06/07 00:50:18;;;;;;;1.90;1.47;;;13.20;99.90;;;;;;6214799;23;20469;-92
2022/06/07 00:52:44;;;;;;;3.63;2.30;;;13.20;99.90;;;;;;6194478;23;20189;-94
2022/06/07 00:55:10;;;;;;;1.40;1.07;;;13.20;99.90;;;;;;6164709;23;20639;-92
2022/06/07 00:57:36;;;;;;;7.23;2.43;;;13.20;99.90;;;;;;6214078;23;20197;-92
2022/06/07 01:00:05;;;;;;;5.33;2.47;;;13.30;99.90;;;;;;6164458;23;20276;-92
2022/06/07 01:02:31;;;;;;;2.50;1.67;;;13.30;99.90;;;;;;6216749;23;20193;-92
2022/06/07 01:04:57;;;;;;;3.67;2.13;;;13.20;99.90;;;;;;6165760;23;20509;-92
2022/06/07 01:12:51;;;;;;;2.40;2.03;;;13.20;99.90;;;;;;6198582;23;20741;-93
2022/06/07 01:15:17;;;;;;;3.50;1.47;;;13.20;99.90;;;;;;6191747;23;20224;-93
2022/06/07 01:17:43;;;;;;;6.70;2.10;;;13.10;99.90;;;;;;6215916;23;20264;-92
2022/06/07 01:20:10;;;;;;;5.20;2.37;;;13.00;99.90;;;;;;6190970;23;20165;-92
2022/06/07 01:22:36;;;;;;;0.97;0.93;;;13.00;99.90;;;;;;6191491;23;20250;-93
2022/06/07 01:25:02;;;;;;;2.37;1.37;;;12.90;99.90;;;;;;6166988;23;20245;-93
2022/06/07 01:27:28;;;;;;;1.70;1.60;;;12.90;99.90;;;;;;6190940;23;20249;-94
2022/06/07 01:29:54;;;;;;;1.20;1.10;;;12.90;99.90;;;;;;6191305;23;20215;-92
2022/06/07 01:32:19;;;;;;;2.57;1.67;;;12.90;99.90;;;;;;6166086;23;20247;-93
2022/06/07 01:34:46;;;;;;;2.33;1.73;;;12.90;99.90;;;;;;6215931;23;20177;-92
2022/06/07 01:37:15;;;;;;;1.87;1.40;;;12.90;99.90;;;;;;6215334;23;20197;-92
2022/06/07 01:42:26;;;;;;;5.27;2.53;;;12.80;99.90;;;;;;6198977;23;20227;-93
2022/06/07 01:44:52;;;;;;;2.50;1.37;;;12.70;99.90;;;;;;6190219;23;20197;-94
2022/06/07 01:47:21;;;;;;;2.23;1.57;;;12.70;99.90;;;;;;6190450;23;20189;-92
2022/06/07 01:49:47;;;;;;;6.27;2.73;;;12.70;99.90;;;;;;6216251;23;20169;-95
2022/06/07 01:52:16;;;;;;;3.77;1.97;;;12.70;99.90;;;;;;6167037;23;20200;-96
2022/06/07 01:54:42;;;;;;;2.87;1.60;;;12.60;99.90;;;;;;6215717;23;20337;-94
2022/06/07 01:57:08;;;;;;;3.40;1.30;;;12.60;99.90;;;;;;6165566;23;20646;-94
2022/06/07 01:59:35;;;;;;;3.07;1.67;;;12.60;99.90;;;;;;6166018;23;20201;-94
2022/06/07 02:02:02;;;;;;;6.17;1.27;;;12.60;99.90;;;;;;6215811;23;20639;-93
2022/06/07 02:04:28;;;;;;;6.13;3.00;;;12.60;99.90;;;;;;6191645;23;20266;-94
2022/06/07 02:06:54;;;;;;;1.90;1.53;;;12.70;99.90;;;;;;6165737;23;20213;-94
2022/06/07 02:09:20;;;;;;;7.23;2.30;;;12.70;99.90;;;;;;6215946;23;20223;-95
2022/06/07 02:11:46;;;;;;;4.37;3.23;;;12.70;99.90;;;;;;6191067;23;20729;-93
2022/06/07 02:14:13;;;;;;;7.27;1.77;;;12.70;99.90;;;;;;6191276;23;20192;-94
2022/06/07 02:16:39;;;;;;;3.03;1.07;;;12.70;99.90;;;;;;6216770;23;20176;-92
2022/06/07 02:19:06;;;;;;;3.27;1.27;;;12.70;99.90;;;;;;6165756;23;20284;-94
2022/06/07 02:21:32;;;;;;;3.93;1.87;;;12.70;99.90;;;;;;6215577;23;20644;-93
2022/06/07 02:23:58;;;;;;;4.17;1.57;;;12.80;99.90;;;;;;6166039;23;20270;-92
2022/06/07 02:26:36;;;;;;;3.10;2.70;;;12.70;99.90;;;;;;6215658;23;20272;-94
2022/06/07 02:29:05;;;;;;;7.37;1.57;;;12.70;99.90;;;;;;6215903;23;20145;-92
2022/06/07 02:31:34;;;;;;;4.03;2.07;;;12.60;99.90;;;;;;6216255;23;20164;-93
2022/06/07 02:34:01;;;;;;;7.87;2.43;;;12.60;99.90;;;;;;6215134;23;20291;-93
2022/06/07 02:36:31;;;;;;;5.40;2.87;;;12.50;99.90;;;;;;6190529;23;20247;-93
2022/06/07 02:38:58;;;;;;;2.57;1.87;;;12.50;99.90;;;;;;6190718;23;20204;-92
2022/06/07 02:41:26;;;;;;;3.30;2.37;;;12.50;99.90;;;;;;6190821;23;20502;-93
2022/06/07 02:43:53;;;;;;;1.07;1.00;;;12.50;99.90;;;;;;6215894;23;20169;-92
2022/06/07 02:46:19;;;;;;;2.77;2.27;;;12.50;99.90;;;;;;6215250;23;20256;-92
2022/06/07 02:48:45;;;;;;;1.47;1.37;;;12.50;99.90;;;;;;6190294;23;20276;-92
2022/06/07 02:51:11;;;;;;;4.17;1.40;;;12.50;99.90;;;;;;6164564;23;20221;-92
2022/06/07 02:53:37;;;;;;;6.50;2.60;;;12.40;99.90;;;;;;6190349;23;20670;-93
2022/06/07 02:56:03;;;;;;;4.20;2.00;;;12.40;99.90;;;;;;6189680;23;20224;-92
2022/06/07 02:58:30;;;;;;;7.77;1.37;;;12.30;99.90;;;;;;6191521;23;20211;-93
2022/06/07 03:00:59;;;;;;;6.33;2.27;;;12.30;99.90;;;;;;6165406;23;20293;-93
2022/06/07 03:03:26;;;;;;;2.57;2.37;;;12.30;99.90;;;;;;6215560;23;20193;-93
2022/06/07 03:05:52;;;;;;;7.37;2.50;;;12.30;99.90;;;;;;6189597;23;20205;-92
2022/06/07 03:08:18;;;;;;;2.90;1.73;;;12.30;99.90;;;;;;6165688;23;20197;-92
2022/06/07 03:10:49;;;;;;;7.77;2.50;;;12.30;99.90;;;;;;6167097;23;20486;-94
2022/06/07 03:13:16;;;;;;;6.53;2.23;;;12.30;99.90;;;;;;6214866;23;20658;-94
2022/06/07 03:15:42;;;;;;;4.13;2.43;;;12.30;99.90;;;;;;6190179;23;20268;-92
2022/06/07 03:18:09;;;;;;;4.67;2.30;;;12.30;99.90;;;;;;6190486;23;20272;-93
2022/06/07 03:20:36;;;;;;;2.43;1.90;;;12.30;99.90;;;;;;6214998;23;20204;-92
2022/06/07 03:23:02;;;;;;;1.33;1.17;;;12.30;99.90;;;;;;6189726;23;20165;-94
2022/06/07 03:25:27;;;;;;;7.40;2.40;;;12.30;99.90;;;;;;6190972;23;20567;-92
2022/06/07 03:27:53;;;;;;;1.30;1.13;;;12.30;99.90;;;;;;6214965;23;20203;-93
2022/06/07 03:30:19;;;;;;;3.00;1.87;;;12.30;99.90;;;;;;6214833;23;20219;-92
2022/06/07 03:32:46;;;;;;;1.63;1.53;;;12.20;99.90;;;;;;6190067;23;20534;-93
2022/06/07 03:35:14;;;;;;;6.40;2.20;;;12.20;99.90;;;;;;6214888;23;20177;-92
2022/06/07 03:37:41;;;;;;;3.97;2.00;;;12.20;99.90;;;;;;6216002;23;20154;-93
2022/06/07 03:40:10;;;;;;;3.83;1.83;;;12.20;99.90;;;;;;6189800;23;20197;-90
2022/06/07 03:42:36;;;;;;;3.53;2.03;;;12.20;99.90;;;;;;6214453;23;20194;-91
2022/06/07 03:45:03;;;;;;;1.40;1.30;;;12.20;99.90;;;;;;6164940;23;20197;-92
2022/06/07 03:47:29;;;;;;;2.70;1.50;;;12.20;99.90;;;;;;6189678;23;20193;-92
2022/06/07 03:49:54;;;;;;;4.07;1.60;;;12.20;99.90;;;;;;6214402;23;20244;-92
2022/06/07 03:52:20;;;;;;;2.83;1.83;;;12.30;99.90;;;;;;6165429;23;20157;-91
2022/06/07 03:54:48;;;;;;;5.93;1.00;;;12.30;99.90;;;;;;6164727;23;20259;-92
2022/06/07 03:57:14;;;;;;;2.67;1.30;;;12.30;99.90;;;;;;6214305;23;20188;-91
2022/06/07 03:59:40;;;;;;;5.67;1.13;;;12.30;99.90;;;;;;6189435;23;20596;-92
2022/06/07 04:02:06;;;;;;;7.50;1.67;;;12.30;99.90;;;;;;6189554;23;20590;-91
2022/06/07 04:04:34;;;;;;;2.73;1.00;;;12.40;99.90;;;;;;6190027;23;20201;-93
2022/06/07 04:09:45;;;;;;;0.50;0.50;;;12.40;99.90;;;;;;6240753;23;20224;-93
2022/06/07 04:12:16;;;;;;;0.53;0.53;;;12.30;99.90;;;;;;6165277;23;20212;-92
2022/06/07 04:14:44;;;;;;;1.10;1.00;;;12.30;99.90;;;;;;6214756;23;20209;-93
2022/06/07 04:17:12;;;;;;;2.27;2.07;;;12.40;99.90;;;;;;6189531;23;20165;-93
2022/06/07 04:19:39;;;;;;;2.13;0.97;;;12.30;99.90;;;;;;6214992;23;20157;-93
2022/06/07 04:22:05;;;;;;;0.73;0.60;;;12.30;99.90;;;;;;6189563;23;20633;-93
2022/06/07 04:24:31;;;;;;;1.10;1.10;;;12.30;99.90;;;;;;6189714;23;20212;-93
2022/06/07 04:26:57;;;;;;;1.90;0.77;;;12.40;99.90;;;;;;6189335;23;20207;-94
2022/06/07 04:29:25;;;;;;;1.23;1.13;;;12.40;99.90;;;;;;6214552;23;20204;-93
2022/06/07 04:31:50;;;;;;;0.43;0.43;;;12.40;99.90;;;;;;6190623;23;20642;-94
2022/06/07 04:34:20;;;;;;;0.30;0.30;;;12.40;99.90;;;;;;6189753;23;20206;-94
2022/06/07 04:36:46;;;;;;;2.63;1.03;;;12.40;99.90;;;;;;6192234;23;20630;-94
2022/06/07 04:39:13;;;;;;;0.83;0.60;;;12.40;99.90;;;;;;6191551;23;20581;-93
2022/06/07 04:41:39;;;;;;;1.07;0.80;;;12.40;99.90;;;;;;6191282;23;20215;-93
2022/06/07 04:44:05;;;;;;;1.43;1.17;;;12.40;99.90;;;;;;6215750;23;20154;-92
2022/06/07 04:46:31;;;;;;;1.67;1.00;;;12.50;99.90;;;;;;6216958;23;20166;-92
2022/06/07 04:48:57;;;;;;;0.50;0.37;;;12.50;99.90;;;;;;6191269;23;20247;-92
2022/06/07 04:51:29;;;;;;;5.87;1.90;;;12.50;99.90;;;;;;6191248;23;20201;-93
2022/06/07 04:53:56;;;;;;;1.70;0.60;;;12.50;99.90;;;;;;6215656;23;20214;-93
2022/06/07 04:56:25;;;;;;;1.00;0.93;;;12.50;99.90;;;;;;6191300;23;20634;-91
2022/06/07 04:58:52;;;;;;;2.10;1.40;;;12.60;99.90;;;;;;6216429;23;20165;-91
2022/06/07 05:01:24;;;;;;;0.67;0.67;;;12.60;99.90;;;;;;6191363;23;20246;-92
2022/06/07 05:03:51;;;;;;;1.70;1.47;;;12.60;99.90;;;;;;6215555;23;20248;-92
2022/06/07 05:06:39;;;;;;;9.10;0.60;;;12.60;99.90;;;;;;6191109;23;20201;-92
2022/06/07 05:09:20;;;;;;;2.30;0.97;;;12.60;99.90;;;;;;6215361;23;20204;-92
2022/06/07 05:11:50;;;;;;;2.40;1.13;;;12.70;99.90;;;;;;6216290;23;20215;-92
2022/06/07 05:14:16;;;;;;;7.70;1.63;;;12.70;99.90;;;;;;6215912;23;20587;-91
2022/06/07 05:16:42;;;;;;;0.73;0.73;;;12.70;99.90;;;;;;6216583;23;20157;-92
2022/06/07 05:19:12;;;;;;;2.37;0.90;;;12.70;99.90;;;;;;6165362;23;20644;-89
2022/06/07 05:21:39;;;;;;;4.80;1.13;;;12.80;99.90;;;;;;6190485;23;20713;-90
2022/06/07 05:24:05;;;;;;;1.63;0.70;;;12.80;99.90;;;;;;6215436;23;20236;-91
2022/06/07 05:27:04;;;;;;;1.97;1.20;;;12.90;99.90;;;;;;6187831;23;20670;-91
2022/06/07 05:29:54;;;;;;;0.67;0.67;;;12.90;99.90;;;;;;6122969;23;20209;-91
2022/06/07 05:32:20;;;;;;;3.87;0.90;;;12.90;99.90;;;;;;6215220;23;20208;-89
2022/06/07 05:34:46;;;;;;;3.70;1.33;;;13.00;99.90;;;;;;6166100;23;20192;-89
2022/06/07 05:37:19;;;;;;;0.60;0.60;;;13.00;99.90;;;;;;6164659;23;20197;-90
2022/06/07 05:39:45;;;;;;;1.27;0.77;;;13.10;99.90;;;;;;6215512;23;20250;-91
2022/06/07 05:42:12;;;;;;;4.50;1.20;;;13.20;99.90;;;;;;6190450;23;20205;-90
2022/06/07 05:44:38;;;;;;;3.87;0.67;;;13.20;99.90;;;;;;6180243;23;20193;-91
2022/06/07 05:47:05;;;;;;;0.30;0.30;;;13.20;99.90;;;;;;6243023;23;20465;-91
2022/06/07 05:49:31;;;;;;;0.63;0.47;;;13.20;99.90;;;;;;6167197;23;20590;-93
2022/06/07 05:52:00;;;;;;;3.40;1.17;;;13.30;99.90;;;;;;6190599;23;20623;-93
2022/06/07 05:54:27;;;;;;;0.47;0.47;;;13.30;99.90;;;;;;6214974;23;20216;-94
2022/06/07 05:56:53;;;;;;;0.50;0.50;;;13.30;99.90;;;;;;6214917;23;20255;-94
2022/06/07 05:59:21;;;;;;;0.53;0.50;;;13.30;99.90;;;;;;6166055;23;20664;-94
2022/06/07 06:01:47;;;;;;;4.33;0.73;;;13.30;99.90;;;;;;6216923;23;20157;-94
2022/06/07 06:04:13;;;;;;;6.00;0.77;;;13.30;99.90;;;;;;6190239;23;20216;-92
2022/06/07 06:06:39;;;;;;;0.87;0.70;;;13.40;99.90;;;;;;6166177;23;20247;-94
2022/06/07 06:11:50;;;;;;;4.90;1.60;;;13.70;99.90;;;;;;6242190;23;20200;-94
2022/06/07 06:14:17;;;;;;;3.47;0.63;;;13.80;99.90;;;;;;6190199;23;20201;-92
2022/06/07 06:16:43;;;;;;;0.40;0.40;;;13.70;99.90;;;;;;6216692;23;20168;-96
2022/06/07 06:19:09;;;;;;;2.43;0.57;;;13.90;99.90;;;;;;6193198;23;21190;-93
2022/06/07 06:21:38;;;;;;;0.40;0.40;;;13.80;99.90;;;;;;6168863;23;20197;-92
2022/06/07 06:24:06;;;;;;;3.87;0.67;;;13.80;99.90;;;;;;6218227;23;20661;-94
2022/06/07 06:26:32;;;;;;;0.60;0.60;;;13.90;99.90;;;;;;6229951;23;20201;-93
2022/06/07 06:28:58;;;;;;;2.60;1.13;;;13.80;99.90;;;;;;6184389;23;20202;-93
2022/06/07 06:31:27;;;;;;;0.83;0.60;;;13.70;99.90;;;;;;6177745;23;20168;-95
2022/06/07 06:33:56;;;;;;;0.50;0.50;;;13.70;99.90;;;;;;6220811;23;20231;-96
2022/06/07 06:36:29;;;;;;;1.87;0.67;;;13.80;99.90;;;;;;6191079;23;20526;-94
2022/06/07 06:38:55;;;;;;;3.20;0.60;;;13.80;99.90;;;;;;6191211;23;20304;-93
2022/06/07 06:41:29;;;;;;;1.33;0.60;;;13.80;99.90;;;;;;6214920;23;20193;-94
2022/06/07 06:43:58;;;;;;;0.67;0.57;;;13.80;99.90;;;;;;6192531;23;20153;-94
2022/06/07 06:46:34;;;;;;;1.40;0.63;;;13.70;99.90;;;;;;6192155;23;20166;-94
2022/06/07 06:49:00;;;;;;;3.30;0.70;;;13.70;99.90;;;;;;6217301;23;20205;-94
2022/06/07 06:51:27;;;;;;;0.30;0.30;;;13.80;99.90;;;;;;6190373;23;20507;-95
2022/06/07 06:53:57;;;;;;;0.93;0.80;;;13.90;99.90;;;;;;6190639;23;20603;-93
2022/06/07 06:56:24;;;;;;;0.67;0.40;;;13.90;99.90;;;;;;6215233;23;20864;-94
2022/06/07 06:58:51;;;;;;;0.50;0.50;;;13.90;99.90;;;;;;6215939;23;20187;-94
2022/06/07 07:01:21;;;;;;;0.50;0.50;;;13.90;99.90;;;;;;6189926;23;20642;-95
2022/06/07 07:03:48;;;;;;;0.73;0.73;;;13.80;99.90;;;;;;6215286;23;20200;-96
2022/06/07 07:06:14;;;;;;;1.23;1.23;;;13.90;99.90;;;;;;6190821;23;20201;-93
2022/06/07 07:08:42;;;;;;;0.20;0.20;;;13.90;99.90;;;;;;6190872;23;20200;-93
2022/06/07 07:11:10;;;;;;;0.30;0.30;;;13.90;99.90;;;;;;6215497;23;20519;-94
2022/06/07 07:13:37;;;;;;;1.60;0.50;;;14.00;99.90;;;;;;6215673;23;20270;-96
2022/06/07 07:16:05;;;;;;;1.13;0.77;;;14.20;99.90;;;;;;6215162;23;20191;-94
2022/06/07 07:18:31;;;;;;;4.03;1.00;;;14.20;99.90;;;;;;6215515;23;20557;-95
2022/06/07 07:20:57;;;;;;;1.90;0.60;;;14.20;99.90;;;;;;6156381;23;20200;-95
2022/06/07 07:23:24;;;;;;;8.33;0.90;;;14.20;99.90;;;;;;6189831;23;20893;-93
2022/06/07 07:25:50;;;;;;;0.97;0.80;;;14.10;99.90;;;;;;6122616;23;20485;-94
2022/06/07 07:28:17;;;;;;;9.10;0.77;;;14.20;99.90;;;;;;6214524;23;20196;-95
2022/06/07 07:30:43;;;;;;;0.57;0.57;;;14.10;99.90;;;;;;6215003;23;20590;-93
2022/06/07 07:33:10;;;;;;;2.63;0.80;;;14.10;99.90;;;;;;6164849;23;20235;-95
2022/06/07 07:35:35;;;;;;;0.43;0.43;;;14.20;99.90;;;;;;6191755;23;20194;-92
2022/06/07 07:38:02;;;;;;;0.77;0.50;;;14.20;99.90;;;;;;6206019;23;20219;-94
2022/06/07 07:40:28;;;;;;;5.60;0.87;;;14.20;99.90;;;;;;6165334;23;20185;-96
2022/06/07 07:42:54;;;;;;;5.40;0.80;;;14.20;99.90;;;;;;6165285;23;20247;-94
2022/06/07 07:45:20;;;;;;;2.63;0.30;;;14.20;99.90;;;;;;6165324;23;20193;-94
2022/06/07 07:47:46;;;;;;;1.43;1.07;;;14.20;99.90;;;;;;6190253;23;20192;-96
2022/06/07 07:50:12;;;;;;;4.67;0.70;;;14.20;99.90;;;;;;6165321;23;20207;-94
2022/06/07 07:52:38;;;;;;;7.07;0.87;;;14.30;99.90;;;;;;6206872;23;20197;-94
2022/06/07 07:55:05;;;;;;;6.07;0.63;;;14.20;99.90;;;;;;6164412;23;20216;-95
2022/06/07 07:57:31;;;;;;;2.67;0.87;;;14.10;99.90;;;;;;6189936;23;20669;-95
2022/06/07 07:59:57;;;;;;;3.50;0.87;;;14.10;99.90;;;;;;6165323;23;20197;-94
2022/06/07 08:02:24;;;;;;;6.67;0.83;;;14.00;99.90;;;;;;6163724;23;20201;-92
2022/06/07 08:04:50;;;;;;;2.70;1.17;;;14.00;99.90;;;;;;6186812;23;20284;-95
2022/06/07 08:07:16;;;;;;;3.23;0.80;;;14.10;99.90;;;;;;6190050;23;20630;-95
2022/06/07 08:09:43;;;;;;;2.20;0.53;;;14.10;99.90;;;;;;6167467;23;20199;-96
2022/06/07 08:12:09;;;;;;;0.77;0.73;;;14.10;99.90;;;;;;6192563;23;20200;-96
2022/06/07 08:14:36;;;;;;;0.20;0.20;;;14.00;99.90;;;;;;6169509;23;20205;-96
2022/06/07 08:17:03;;;;;;;2.90;0.37;;;13.90;99.90;;;;;;6192813;23;20169;-94
2022/06/07 08:19:30;;;;;;;0.47;0.47;;;13.80;99.90;;;;;;6168664;23;20817;-95
2022/06/07 08:21:56;;;;;;;0.60;0.60;;;13.90;99.90;;;;;;6217246;23;20261;-94
2022/06/07 08:24:22;;;;;;;0.57;0.57;;;14.10;99.90;;;;;;6168288;23;20205;-95
2022/06/07 08:26:49;;;;;;;0.83;0.77;;;14.10;99.90;;;;;;6192846;23;20204;-95
2022/06/07 08:29:16;;;;;;;0.30;0.30;;;14.40;99.90;;;;;;6168283;23;20201;-93
2022/06/07 08:31:42;;;;;;;2.00;0.90;;;14.40;99.90;;;;;;6185009;23;20207;-94
2022/06/07 08:39:42;;;;;;;0.30;0.30;;;14.60;99.90;;;;;;6200746;23;20201;-94
2022/06/07 08:42:26;;;;;;;0.57;0.57;;;14.80;99.90;;;;;;6217568;23;20259;-93
2022/06/07 08:45:05;;;;;;;0.30;0.30;;;14.80;99.90;;;;;;6216886;23;20204;-95
2022/06/07 08:47:53;;;;;;;2.17;0.77;;;14.90;99.90;;;;;;6195483;23;20255;-95
2022/06/07 08:50:24;;;;;;;0.27;0.27;;;15.20;99.90;;;;;;6217408;23;20800;-96
2022/06/07 08:53:11;;;;;;;0.90;0.90;;;15.40;99.90;;;;;;6218040;23;20142;-94
2022/06/07 08:55:52;;;;;;;0.73;0.50;;;15.60;99.90;;;;;;6215411;23;20243;-94
2022/06/07 08:58:34;;;;;;;4.87;1.57;;;15.60;99.90;;;;;;6215930;23;20223;-93
2022/06/07 09:01:17;;;;;;;0.20;0.20;;;15.20;99.90;;;;;;6216597;23;20204;-95
2022/06/07 09:04:04;;;;;;;1.97;1.20;;;14.80;99.90;;;;;;6216432;23;20201;-93
2022/06/07 09:06:33;;;;;;;1.67;0.83;;;14.80;99.90;;;;;;6216505;23;20212;-94
2022/06/07 09:09:00;;;;;;;3.27;1.63;;;14.90;99.90;;;;;;6216855;23;20205;-94
2022/06/07 09:14:19;;;;;;;2.83;0.80;;;15.20;99.90;;;;;;6242520;23;20200;-94
2022/06/07 09:16:45;;;;;;;4.43;1.23;;;15.20;99.90;;;;;;6217469;23;20509;-93
2022/06/07 09:19:24;;;;;;;3.80;0.90;;;15.00;99.90;;;;;;6165992;23;20201;-94
2022/06/07 09:21:51;;;;;;;2.10;0.93;;;14.90;99.90;;;;;;6215480;23;20193;-93
2022/06/07 09:24:31;;;;;;;6.63;1.53;;;14.90;99.90;;;;;;6215924;23;20280;-94
2022/06/07 09:27:25;;;;;;;3.87;0.93;;;14.90;99.90;;;;;;6216455;23;20192;-92
2022/06/07 09:29:57;;;;;;;0.83;0.83;;;14.90;99.90;;;;;;6238079;23;20193;-96
2022/06/07 09:32:33;;;;;;;4.33;1.00;;;15.10;99.90;;;;;;6216420;23;20201;-94
2022/06/07 09:35:05;;;;;;;1.97;1.10;;;15.20;99.90;;;;;;6192044;23;20193;-93
2022/06/07 09:37:40;;;;;;;2.30;1.03;;;15.00;99.90;;;;;;6217353;23;20168;-94
2022/06/07 09:40:33;;;;;;;1.93;1.43;;;15.00;99.90;;;;;;6215722;23;20193;-91
2022/06/07 09:43:11;;;;;;;0.43;0.43;;;14.60;99.90;;;;;;6215574;23;20193;-93
2022/06/07 09:45:46;;;;;;;0.87;0.77;;;14.40;99.90;;;;;;6215720;23;20193;-92
2022/06/07 09:48:18;;;;;;;1.57;1.10;;;14.40;99.90;;;;;;6215079;23;20211;-92
2022/06/07 09:50:55;;;;;;;3.20;0.80;;;14.60;99.90;;;;;;6214974;23;20196;-92
2022/06/07 09:53:20;;;;;;;1.23;0.77;;;14.90;99.90;;;;;;6214630;23;20258;-91
2022/06/07 09:56:11;;;;;;;6.80;1.07;;;15.10;99.90;;;;;;6190757;23;20185;-91
2022/06/07 09:59:13;;;;;;;5.27;0.90;;;15.10;99.90;;;;;;6214722;23;20189;-93
2022/06/07 10:01:48;;;;;;;0.23;0.23;;;15.10;99.90;;;;;;6215473;23;20205;-93
2022/06/07 10:04:27;;;;;;;2.47;0.90;;;14.90;99.90;;;;;;6214382;23;20196;-93
2022/06/07 10:06:57;;;;;;;7.37;2.07;;;15.00;99.90;;;;;;6214815;23;20211;-93
2022/06/07 10:09:31;;;;;;;4.43;1.33;;;15.10;99.90;;;;;;6214644;23;20204;-93
2022/06/07 10:12:11;;;;;;;0.93;0.80;;;15.20;99.90;;;;;;6214535;23;20200;-90
2022/06/07 10:15:04;;;;;;;1.83;1.00;;;15.30;99.90;;;;;;6213847;23;20209;-93
2022/06/07 10:17:48;;;;;;;0.40;0.40;;;16.30;99.90;;;;;;6213265;23;20205;-93
2022/06/07 10:20:32;;;;;;;0.77;0.77;;;17.00;99.90;;;;;;6214872;23;20149;-91
2022/06/07 10:23:11;;;;;;;2.27;1.00;;;16.80;99.90;;;;;;6214494;23;20167;-94
2022/06/07 10:25:59;;;;;;;4.13;0.97;;;16.90;99.90;;;;;;6214236;23;20694;-88
2022/06/07 10:28:34;;;;;;;2.33;0.93;;;17.10;99.90;;;;;;6213725;23;20788;-90
2022/06/07 10:31:40;;;;;;;2.13;1.40;;;16.80;99.90;;;;;;6214956;23;20197;-90
2022/06/07 10:34:41;;;;;;;10.40;1.13;;;17.20;99.90;;;;;;6213095;23;20232;-90
2022/06/07 10:37:06;;;;;;;0.70;0.60;;;17.90;99.90;;;;;;6232559;23;20271;-92
2022/06/07 10:39:50;;;;;;;5.13;1.33;;;17.00;99.90;;;;;;6213693;23;20225;-90
2022/06/07 10:42:27;;;;;;;5.17;1.30;;;16.70;99.90;;;;;;6214344;23;20203;-91
2022/06/07 10:44:58;;;;;;;3.37;1.60;;;16.50;99.90;;;;;;6214417;23;20192;-90
2022/06/07 10:47:42;;;;;;;2.23;1.20;;;16.40;99.90;;;;;;6213677;23;20275;-88
2022/06/07 10:50:29;;;;;;;1.90;0.90;;;16.20;99.90;;;;;;6213846;23;20157;-90
2022/06/07 10:53:14;;;;;;;1.77;1.00;;;15.80;99.90;;;;;;6188180;23;20597;-90
2022/06/07 10:55:46;;;;;;;5.20;0.90;;;15.80;99.90;;;;;;6213029;23;20157;-92
2022/06/07 10:58:40;;;;;;;3.93;0.77;;;15.90;99.90;;;;;;6212360;23;20270;-89
2022/06/07 11:01:24;;;;;;;0.40;0.40;;;15.70;99.90;;;;;;6186898;23;20823;-91
2022/06/07 11:09:19;;;;;;;0.57;0.57;;;15.60;99.90;;;;;;6212780;23;20196;-90
2022/06/07 11:10:01;;;;;;;4.80;1.50;;;15.70;99.90;;;;;;6239353;23;20197;-89
2022/06/07 11:12:33;;;;;;;2.97;1.03;;;15.70;99.90;;;;;;6213386;23;20651;-92
2022/06/07 11:15:11;;;;;;;2.67;0.63;;;15.80;99.90;;;;;;6213640;23;20212;-92
2022/06/07 11:17:47;;;;;;;0.73;0.53;;;15.70;99.90;;;;;;6213418;23;20205;-89
2022/06/07 11:20:21;;;;;;;0.40;0.40;;;15.50;99.90;;;;;;6213400;23;20496;-90
2022/06/07 11:23:14;;;;;;;1.10;0.90;;;15.50;99.90;;;;;;6214269;23;20609;-91
2022/06/07 11:26:00;;;;;;;1.73;0.90;;;15.50;99.90;;;;;;6213084;23;20189;-90
2022/06/07 11:28:30;;;;;;;5.20;1.17;;;15.40;99.90;;;;;;6213568;23;20180;-90
2022/06/07 11:31:15;;;;;;;3.57;0.60;;;15.60;99.90;;;;;;6212911;23;20232;-93
2022/06/07 11:33:47;;;;;;;0.60;0.53;;;15.60;99.90;;;;;;6213331;23;20213;-89
2022/06/07 11:36:12;;;;;;;1.70;1.13;;;15.60;99.90;;;;;;6213424;23;20282;-95
2022/06/07 11:38:56;;;;;;;0.60;0.60;;;15.80;99.90;;;;;;6213739;23;20205;-93
2022/06/07 11:41:37;;;;;;;2.13;0.60;;;15.80;99.90;;;;;;6213543;23;20195;-90
2022/06/07 11:44:11;;;;;;;1.30;0.80;;;15.70;99.90;;;;;;6213046;23;20151;-90
2022/06/07 11:46:39;;;;;;;2.47;0.90;;;15.90;99.90;;;;;;6213922;23;20156;-90
2022/06/07 11:49:17;;;;;;;0.50;0.40;;;16.00;99.90;;;;;;6213321;23;20641;-88
2022/06/07 11:51:50;;;;;;;5.10;0.63;;;16.30;99.90;;;;;;6213083;23;20588;-91
2022/06/07 11:54:17;;;;;;;1.17;0.50;;;16.60;99.90;;;;;;6239766;23;20231;-91
2022/06/07 11:56:47;;;;;;;0.57;0.57;;;16.50;99.90;;;;;;6188466;23;20645;-91
2022/06/07 11:59:20;;;;;;;2.03;1.10;;;16.40;99.90;;;;;;6213935;23;20920;-92
2022/06/07 12:02:07;;;;;;;2.77;0.93;;;16.60;99.90;;;;;;6214858;23;20157;-94
2022/06/07 12:04:43;;;;;;;3.33;0.73;;;16.80;99.90;;;;;;6212692;23;20216;-93
2022/06/07 12:07:32;;;;;;;0.73;0.73;;;16.90;99.90;;;;;;6213771;23;20212;-89
2022/06/07 12:10:13;;;;;;;15.03;0.90;;;16.80;99.90;;;;;;6213539;23;20207;-93
2022/06/07 12:12:39;;;;;;;3.47;1.10;;;17.00;99.90;;;;;;6213209;23;20201;-91
2022/06/07 12:15:26;;;;;;;3.47;0.87;;;16.80;99.90;;;;;;6188438;23;20212;-92
2022/06/07 12:18:02;;;;;;;3.20;0.67;;;16.60;99.90;;;;;;6213234;23;20203;-91
2022/06/07 12:20:35;;;;;;;0.93;0.93;;;16.40;99.90;;;;;;6212908;23;20276;-92
2022/06/07 12:23:32;;;;;;;0.83;0.83;;;16.70;99.90;;;;;;6213140;23;20146;-92
2022/06/07 12:26:06;;;;;;;1.30;0.70;;;16.40;99.90;;;;;;6213430;23;20146;-92
2022/06/07 12:28:39;;;;;;;4.33;0.90;;;16.30;99.90;;;;;;6213576;23;20157;-91
2022/06/07 12:31:21;;;;;;;0.50;0.50;;;16.20;99.90;;;;;;6213211;23;20193;-94
2022/06/07 12:33:53;;;;;;;3.53;1.13;;;16.00;99.90;;;;;;6213311;23;20201;-93
2022/06/07 12:36:31;;;;;;;2.50;0.83;;;16.10;99.90;;;;;;6213386;23;20200;-91
2022/06/07 12:39:04;;;;;;;1.83;0.67;;;16.10;99.90;;;;;;6213886;23;20957;-91
2022/06/07 12:41:33;;;;;;;3.50;0.93;;;16.10;99.90;;;;;;6192264;23;20194;-92
2022/06/07 12:44:03;;;;;;;1.90;0.87;;;16.10;99.90;;;;;;6196649;23;20169;-91
2022/06/07 12:46:46;;;;;;;0.63;0.47;;;16.00;99.90;;;;;;6213456;23;20303;-89
2022/06/07 12:49:25;;;;;;;2.27;0.80;;;16.00;99.90;;;;;;6213065;23;20293;-89
2022/06/07 12:52:00;;;;;;;0.60;0.60;;;16.10;99.90;;;;;;6213179;23;20201;-90
2022/06/07 12:54:28;;;;;;;1.53;1.10;;;16.30;99.90;;;;;;6212880;23;20209;-90
2022/06/07 12:56:57;;;;;;;0.60;0.60;;;16.40;99.90;;;;;;6189440;23;20197;-89
2022/06/07 12:59:42;;;;;;;3.47;1.00;;;16.50;99.90;;;;;;6214664;23;20202;-90
2022/06/07 13:02:24;;;;;;;2.17;0.93;;;16.40;99.90;;;;;;6214906;23;20195;-89
2022/06/07 13:04:59;;;;;;;2.30;1.00;;;16.10;99.90;;;;;;6215559;23;20272;-90
2022/06/07 13:07:26;;;;;;;0.97;0.70;;;16.00;99.90;;;;;;6241988;23;20177;-90
2022/06/07 13:09:58;;;;;;;1.40;0.63;;;16.20;99.90;;;;;;6214432;23;20309;-90
2022/06/07 13:12:30;;;;;;;0.67;0.67;;;16.40;99.90;;;;;;6214802;23;20260;-92
2022/06/07 13:14:58;;;;;;;2.33;0.43;;;16.60;99.90;;;;;;6215192;23;20204;-91
2022/06/07 13:17:37;;;;;;;0.63;0.60;;;16.50;99.90;;;;;;6189960;23;20261;-92
2022/06/07 13:20:06;;;;;;;0.70;0.70;;;16.50;99.90;;;;;;6215152;23;20153;-92
2022/06/07 13:22:38;;;;;;;0.80;0.70;;;16.20;99.90;;;;;;6215659;23;20240;-90
2022/06/07 13:25:25;;;;;;;1.40;0.87;;;16.20;99.90;;;;;;6214518;23;20825;-90
2022/06/07 13:28:19;;;;;;;1.90;0.90;;;16.40;99.90;;;;;;6215176;23;20197;-91
2022/06/07 13:30:46;;;;;;;1.87;0.70;;;16.50;99.90;;;;;;6214765;23;20197;-91
2022/06/07 13:33:12;;;;;;;3.10;0.77;;;16.70;99.90;;;;;;6180365;23;20200;-92